sensor_id;sensor_type;location;lat;lon;timestamp;P1;durP1;ratioP1;P2;durP2;ratioP2
15764;SDS011;7983;50.744;7.086;2022-09-03T00:13:23;1.17;;;0.85;;
15764;SDS011;7983;50.744;7.086;2022-09-03T00:15:53;1.55;;;1.00;;
15764;SDS011;7983;50.744;7.086;2022-09-03T00:18:22;1.73;;;1.02;;
15764;SDS011;7983;50.744;7.086;2022-09-03T00:20:57;0.95;;;0.82;;
15764;SDS011;7983;50.744;7.086;2022-09-03T00:23:35;1.90;;;1.05;;
15764;SDS011;7983;50.744;7.086;2022-09-03T00:28:43;3.10;;;2.10;;
15764;SDS011;7983;50.744;7.086;2022-09-03T00:31:21;3.10;;;1.42;;
15764;SDS011;7983;50.744;7.086;2022-09-03T00:34:18;1.38;;;1.10;;
15764;SDS011;7983;50.744;7.086;2022-09-03T00:36:46;1.10;;;1.00;;
15764;SDS011;7983;50.744;7.086;2022-09-03T00:39:21;2.00;;;1.20;;
15764;SDS011;7983;50.744;7.086;2022-09-03T01:00:45;1.48;;;1.00;;
15764;SDS011;7983;50.744;7.086;2022-09-03T01:03:22;1.25;;;1.05;;
15764;SDS011;7983;50.744;7.086;2022-09-03T01:19:26;1.33;;;1.00;;
15764;SDS011;7983;50.744;7.086;2022-09-03T01:30:18;2.47;;;1.20;;
15764;SDS011;7983;50.744;7.086;2022-09-03T01:38:11;1.13;;;0.77;;
15764;SDS011;7983;50.744;7.086;2022-09-03T01:43:19;1.48;;;0.88;;
15764;SDS011;7983;50.744;7.086;2022-09-03T01:46:09;1.45;;;0.90;;
15764;SDS011;7983;50.744;7.086;2022-09-03T01:48:49;0.98;;;0.80;;
15764;SDS011;7983;50.744;7.086;2022-09-03T01:51:49;1.00;;;0.90;;
15764;SDS011;7983;50.744;7.086;2022-09-03T01:54:42;1.40;;;1.00;;
15764;SDS011;7983;50.744;7.086;2022-09-03T01:57:23;1.77;;;1.00;;
15764;SDS011;7983;50.744;7.086;2022-09-03T02:00:11;1.50;;;1.00;;
15764;SDS011;7983;50.744;7.086;2022-09-03T02:02:40;1.00;;;0.90;;
15764;SDS011;7983;50.744;7.086;2022-09-03T02:05:12;1.60;;;0.88;;
15764;SDS011;7983;50.744;7.086;2022-09-03T02:07:44;1.55;;;0.80;;
15764;SDS011;7983;50.744;7.086;2022-09-03T02:10:12;1.17;;;0.80;;
15764;SDS011;7983;50.744;7.086;2022-09-03T02:12:40;1.00;;;0.80;;
15764;SDS011;7983;50.744;7.086;2022-09-03T02:15:14;1.33;;;0.90;;
15764;SDS011;7983;50.744;7.086;2022-09-03T02:17:45;1.10;;;0.80;;
15764;SDS011;7983;50.744;7.086;2022-09-03T02:20:24;1.45;;;0.95;;
15764;SDS011;7983;50.744;7.086;2022-09-03T02:22:51;1.20;;;0.90;;
15764;SDS011;7983;50.744;7.086;2022-09-03T02:25:18;2.35;;;1.00;;
15764;SDS011;7983;50.744;7.086;2022-09-03T02:27:48;2.38;;;0.90;;
15764;SDS011;7983;50.744;7.086;2022-09-03T02:30:15;1.17;;;0.80;;
15764;SDS011;7983;50.744;7.086;2022-09-03T02:32:42;0.98;;;0.80;;
15764;SDS011;7983;50.744;7.086;2022-09-03T02:35:08;1.98;;;1.00;;
15764;SDS011;7983;50.744;7.086;2022-09-03T02:37:39;1.42;;;0.80;;
15764;SDS011;7983;50.744;7.086;2022-09-03T02:40:07;2.03;;;1.02;;
15764;SDS011;7983;50.744;7.086;2022-09-03T02:42:34;1.33;;;0.93;;
15764;SDS011;7983;50.744;7.086;2022-09-03T02:45:06;1.10;;;0.90;;
15764;SDS011;7983;50.744;7.086;2022-09-03T02:47:46;1.55;;;0.80;;
15764;SDS011;7983;50.744;7.086;2022-09-03T02:50:16;4.30;;;0.82;;
15764;SDS011;7983;50.744;7.086;2022-09-03T02:52:41;0.85;;;0.80;;
15764;SDS011;7983;50.744;7.086;2022-09-03T02:55:07;1.85;;;0.80;;
15764;SDS011;7983;50.744;7.086;2022-09-03T02:57:33;1.10;;;0.80;;
15764;SDS011;7983;50.744;7.086;2022-09-03T03:00:01;1.45;;;0.80;;
15764;SDS011;7983;50.744;7.086;2022-09-03T03:02:27;1.63;;;0.85;;
15764;SDS011;7983;50.744;7.086;2022-09-03T03:04:54;2.92;;;0.85;;
15764;SDS011;7983;50.744;7.086;2022-09-03T03:07:20;0.80;;;0.77;;
15764;SDS011;7983;50.744;7.086;2022-09-03T03:09:48;1.13;;;0.70;;
15764;SDS011;7983;50.744;7.086;2022-09-03T03:12:23;1.33;;;0.82;;
15764;SDS011;7983;50.744;7.086;2022-09-03T03:14:50;1.55;;;0.77;;
15764;SDS011;7983;50.744;7.086;2022-09-03T03:17:16;0.70;;;0.70;;
15764;SDS011;7983;50.744;7.086;2022-09-03T03:19:42;1.23;;;0.77;;
15764;SDS011;7983;50.744;7.086;2022-09-03T03:22:12;1.42;;;0.80;;
15764;SDS011;7983;50.744;7.086;2022-09-03T03:24:37;4.63;;;1.10;;
15764;SDS011;7983;50.744;7.086;2022-09-03T03:27:05;1.70;;;0.90;;
15764;SDS011;7983;50.744;7.086;2022-09-03T03:29:35;1.73;;;1.10;;
15764;SDS011;7983;50.744;7.086;2022-09-03T03:32:03;1.40;;;0.90;;
15764;SDS011;7983;50.744;7.086;2022-09-03T03:34:29;1.67;;;0.80;;
15764;SDS011;7983;50.744;7.086;2022-09-03T03:36:54;1.38;;;1.00;;
15764;SDS011;7983;50.744;7.086;2022-09-03T03:39:24;3.53;;;0.98;;
15764;SDS011;7983;50.744;7.086;2022-09-03T03:41:51;1.33;;;0.88;;
15764;SDS011;7983;50.744;7.086;2022-09-03T03:44:17;0.80;;;0.77;;
15764;SDS011;7983;50.744;7.086;2022-09-03T03:46:44;0.90;;;0.80;;
15764;SDS011;7983;50.744;7.086;2022-09-03T03:49:10;1.10;;;0.82;;
15764;SDS011;7983;50.744;7.086;2022-09-03T03:51:36;1.55;;;0.88;;
15764;SDS011;7983;50.744;7.086;2022-09-03T03:54:03;0.90;;;0.80;;
15764;SDS011;7983;50.744;7.086;2022-09-03T03:56:29;1.30;;;0.95;;
15764;SDS011;7983;50.744;7.086;2022-09-03T03:58:55;1.13;;;0.70;;
15764;SDS011;7983;50.744;7.086;2022-09-03T04:01:23;0.77;;;0.77;;
15764;SDS011;7983;50.744;7.086;2022-09-03T04:03:56;0.70;;;0.65;;
15764;SDS011;7983;50.744;7.086;2022-09-03T04:06:26;0.85;;;0.77;;
15764;SDS011;7983;50.744;7.086;2022-09-03T04:08:55;1.63;;;0.80;;
15764;SDS011;7983;50.744;7.086;2022-09-03T04:11:21;0.80;;;0.80;;
15764;SDS011;7983;50.744;7.086;2022-09-03T04:13:50;1.35;;;0.88;;
15764;SDS011;7983;50.744;7.086;2022-09-03T04:16:23;1.00;;;0.70;;
15764;SDS011;7983;50.744;7.086;2022-09-03T04:18:51;0.95;;;0.73;;
15764;SDS011;7983;50.744;7.086;2022-09-03T04:21:19;1.60;;;0.75;;
15764;SDS011;7983;50.744;7.086;2022-09-03T04:23:50;1.63;;;0.80;;
15764;SDS011;7983;50.744;7.086;2022-09-03T04:26:17;1.00;;;0.90;;
15764;SDS011;7983;50.744;7.086;2022-09-03T04:28:45;1.13;;;0.90;;
15764;SDS011;7983;50.744;7.086;2022-09-03T04:31:12;1.10;;;0.82;;
15764;SDS011;7983;50.744;7.086;2022-09-03T04:33:40;1.10;;;0.98;;
15764;SDS011;7983;50.744;7.086;2022-09-03T04:38:35;0.60;;;0.60;;
15764;SDS011;7983;50.744;7.086;2022-09-03T04:41:02;1.70;;;0.95;;
15764;SDS011;7983;50.744;7.086;2022-09-03T04:43:31;0.90;;;0.70;;
15764;SDS011;7983;50.744;7.086;2022-09-03T04:45:58;0.90;;;0.77;;
15764;SDS011;7983;50.744;7.086;2022-09-03T04:48:25;1.05;;;0.80;;
15764;SDS011;7983;50.744;7.086;2022-09-03T04:50:59;1.10;;;0.85;;
15764;SDS011;7983;50.744;7.086;2022-09-03T04:53:29;0.93;;;0.75;;
15764;SDS011;7983;50.744;7.086;2022-09-03T04:55:55;1.00;;;0.73;;
15764;SDS011;7983;50.744;7.086;2022-09-03T04:58:23;1.25;;;1.15;;
15764;SDS011;7983;50.744;7.086;2022-09-03T05:00:48;1.70;;;0.98;;
15764;SDS011;7983;50.744;7.086;2022-09-03T05:03:14;2.33;;;0.85;;
15764;SDS011;7983;50.744;7.086;2022-09-03T05:05:40;1.00;;;0.80;;
15764;SDS011;7983;50.744;7.086;2022-09-03T05:08:06;1.23;;;0.80;;
15764;SDS011;7983;50.744;7.086;2022-09-03T05:10:31;0.90;;;0.77;;
15764;SDS011;7983;50.744;7.086;2022-09-03T05:13:00;1.25;;;0.90;;
15764;SDS011;7983;50.744;7.086;2022-09-03T05:15:28;1.20;;;0.80;;
15764;SDS011;7983;50.744;7.086;2022-09-03T05:17:58;4.60;;;1.10;;
15764;SDS011;7983;50.744;7.086;2022-09-03T05:20:27;1.38;;;1.02;;
15764;SDS011;7983;50.744;7.086;2022-09-03T05:22:54;1.90;;;1.13;;
15764;SDS011;7983;50.744;7.086;2022-09-03T05:25:29;1.58;;;1.05;;
15764;SDS011;7983;50.744;7.086;2022-09-03T05:27:58;1.63;;;1.10;;
15764;SDS011;7983;50.744;7.086;2022-09-03T05:30:27;1.58;;;1.10;;
15764;SDS011;7983;50.744;7.086;2022-09-03T05:32:52;1.83;;;1.20;;
15764;SDS011;7983;50.744;7.086;2022-09-03T05:35:18;1.67;;;1.00;;
15764;SDS011;7983;50.744;7.086;2022-09-03T05:37:46;2.05;;;1.20;;
15764;SDS011;7983;50.744;7.086;2022-09-03T05:40:12;3.25;;;2.35;;
15764;SDS011;7983;50.744;7.086;2022-09-03T05:42:40;6.97;;;4.32;;
15764;SDS011;7983;50.744;7.086;2022-09-03T05:45:08;4.20;;;3.67;;
15764;SDS011;7983;50.744;7.086;2022-09-03T05:47:35;3.92;;;3.28;;
15764;SDS011;7983;50.744;7.086;2022-09-03T05:50:03;3.78;;;2.35;;
15764;SDS011;7983;50.744;7.086;2022-09-03T05:52:37;3.17;;;1.98;;
15764;SDS011;7983;50.744;7.086;2022-09-03T05:55:03;2.25;;;1.35;;
15764;SDS011;7983;50.744;7.086;2022-09-03T05:57:28;2.17;;;1.35;;
15764;SDS011;7983;50.744;7.086;2022-09-03T05:59:58;1.65;;;1.50;;
15764;SDS011;7983;50.744;7.086;2022-09-03T06:02:24;2.75;;;2.42;;
15764;SDS011;7983;50.744;7.086;2022-09-03T06:04:50;2.35;;;1.95;;
15764;SDS011;7983;50.744;7.086;2022-09-03T06:07:15;2.75;;;2.08;;
15764;SDS011;7983;50.744;7.086;2022-09-03T06:09:44;1.95;;;1.42;;
15764;SDS011;7983;50.744;7.086;2022-09-03T06:12:12;2.10;;;1.38;;
15764;SDS011;7983;50.744;7.086;2022-09-03T06:14:38;1.80;;;1.58;;
15764;SDS011;7983;50.744;7.086;2022-09-03T06:17:03;1.50;;;1.40;;
15764;SDS011;7983;50.744;7.086;2022-09-03T06:19:35;1.20;;;1.10;;
15764;SDS011;7983;50.744;7.086;2022-09-03T06:22:00;1.40;;;1.30;;
15764;SDS011;7983;50.744;7.086;2022-09-03T06:24:26;1.90;;;1.00;;
15764;SDS011;7983;50.744;7.086;2022-09-03T06:26:56;1.90;;;1.40;;
15764;SDS011;7983;50.744;7.086;2022-09-03T06:29:25;1.88;;;1.20;;
15764;SDS011;7983;50.744;7.086;2022-09-03T06:31:51;1.40;;;1.00;;
15764;SDS011;7983;50.744;7.086;2022-09-03T06:34:17;1.42;;;1.05;;
15764;SDS011;7983;50.744;7.086;2022-09-03T06:36:46;3.58;;;2.70;;
15764;SDS011;7983;50.744;7.086;2022-09-03T06:39:12;2.28;;;1.98;;
15764;SDS011;7983;50.744;7.086;2022-09-03T06:41:39;1.70;;;1.33;;
15764;SDS011;7983;50.744;7.086;2022-09-03T06:44:07;1.88;;;1.23;;
15764;SDS011;7983;50.744;7.086;2022-09-03T06:46:36;1.23;;;1.10;;
15764;SDS011;7983;50.744;7.086;2022-09-03T06:49:03;2.05;;;1.00;;
15764;SDS011;7983;50.744;7.086;2022-09-03T06:51:30;1.38;;;0.90;;
15764;SDS011;7983;50.744;7.086;2022-09-03T06:54:15;1.65;;;0.90;;
15764;SDS011;7983;50.744;7.086;2022-09-03T06:56:41;1.25;;;0.93;;
15764;SDS011;7983;50.744;7.086;2022-09-03T06:59:09;1.33;;;0.88;;
15764;SDS011;7983;50.744;7.086;2022-09-03T07:01:39;2.08;;;0.95;;
15764;SDS011;7983;50.744;7.086;2022-09-03T07:04:09;1.40;;;0.90;;
15764;SDS011;7983;50.744;7.086;2022-09-03T07:06:37;0.90;;;0.70;;
15764;SDS011;7983;50.744;7.086;2022-09-03T07:09:08;0.93;;;0.73;;
15764;SDS011;7983;50.744;7.086;2022-09-03T07:11:35;0.80;;;0.70;;
15764;SDS011;7983;50.744;7.086;2022-09-03T07:14:05;1.58;;;0.82;;
15764;SDS011;7983;50.744;7.086;2022-09-03T07:16:32;2.38;;;0.90;;
15764;SDS011;7983;50.744;7.086;2022-09-03T07:18:59;0.88;;;0.70;;
15764;SDS011;7983;50.744;7.086;2022-09-03T07:21:27;1.25;;;1.05;;
15764;SDS011;7983;50.744;7.086;2022-09-03T07:24:00;1.40;;;1.00;;
15764;SDS011;7983;50.744;7.086;2022-09-03T07:26:28;1.38;;;0.90;;
15764;SDS011;7983;50.744;7.086;2022-09-03T07:28:55;0.85;;;0.75;;
15764;SDS011;7983;50.744;7.086;2022-09-03T07:31:23;1.83;;;1.00;;
15764;SDS011;7983;50.744;7.086;2022-09-03T07:33:51;1.98;;;0.90;;
15764;SDS011;7983;50.744;7.086;2022-09-03T07:36:19;1.15;;;0.90;;
15764;SDS011;7983;50.744;7.086;2022-09-03T07:38:49;1.05;;;0.85;;
15764;SDS011;7983;50.744;7.086;2022-09-03T07:41:15;0.90;;;0.70;;
15764;SDS011;7983;50.744;7.086;2022-09-03T07:43:41;1.20;;;0.80;;
15764;SDS011;7983;50.744;7.086;2022-09-03T07:46:13;1.35;;;0.80;;
15764;SDS011;7983;50.744;7.086;2022-09-03T07:48:51;1.13;;;0.80;;
15764;SDS011;7983;50.744;7.086;2022-09-03T07:51:18;0.73;;;0.73;;
15764;SDS011;7983;50.744;7.086;2022-09-03T07:53:44;1.10;;;0.90;;
15764;SDS011;7983;50.744;7.086;2022-09-03T07:56:11;2.83;;;1.30;;
15764;SDS011;7983;50.744;7.086;2022-09-03T07:58:42;0.85;;;0.80;;
15764;SDS011;7983;50.744;7.086;2022-09-03T08:01:11;1.25;;;0.90;;
15764;SDS011;7983;50.744;7.086;2022-09-03T08:03:41;1.65;;;0.93;;
15764;SDS011;7983;50.744;7.086;2022-09-03T08:06:13;1.65;;;0.90;;
15764;SDS011;7983;50.744;7.086;2022-09-03T08:08:43;1.13;;;0.90;;
15764;SDS011;7983;50.744;7.086;2022-09-03T08:11:15;2.25;;;1.08;;
15764;SDS011;7983;50.744;7.086;2022-09-03T08:13:47;3.60;;;1.05;;
15764;SDS011;7983;50.744;7.086;2022-09-03T08:16:17;1.30;;;1.00;;
15764;SDS011;7983;50.744;7.086;2022-09-03T08:18:43;4.13;;;1.13;;
15764;SDS011;7983;50.744;7.086;2022-09-03T08:21:17;3.47;;;1.10;;
15764;SDS011;7983;50.744;7.086;2022-09-03T08:23:47;1.70;;;1.10;;
15764;SDS011;7983;50.744;7.086;2022-09-03T08:26:17;2.63;;;1.50;;
15764;SDS011;7983;50.744;7.086;2022-09-03T08:28:44;1.40;;;1.00;;
15764;SDS011;7983;50.744;7.086;2022-09-03T08:33:36;1.55;;;1.10;;
15764;SDS011;7983;50.744;7.086;2022-09-03T08:36:07;1.02;;;0.93;;
15764;SDS011;7983;50.744;7.086;2022-09-03T08:38:39;0.88;;;0.80;;
15764;SDS011;7983;50.744;7.086;2022-09-03T08:43:48;2.83;;;1.40;;
15764;SDS011;7983;50.744;7.086;2022-09-03T08:46:56;1.60;;;1.10;;
15764;SDS011;7983;50.744;7.086;2022-09-03T08:55:08;1.45;;;1.10;;
15764;SDS011;7983;50.744;7.086;2022-09-03T08:57:56;1.25;;;1.10;;
15764;SDS011;7983;50.744;7.086;2022-09-03T09:15:09;1.38;;;0.93;;
15764;SDS011;7983;50.744;7.086;2022-09-03T09:23:21;1.45;;;1.00;;
15764;SDS011;7983;50.744;7.086;2022-09-03T09:26:00;1.38;;;1.17;;
15764;SDS011;7983;50.744;7.086;2022-09-03T09:28:34;1.45;;;1.15;;
15764;SDS011;7983;50.744;7.086;2022-09-03T09:31:02;1.95;;;1.02;;
15764;SDS011;7983;50.744;7.086;2022-09-03T09:33:32;1.67;;;0.93;;
15764;SDS011;7983;50.744;7.086;2022-09-03T09:36:00;1.13;;;0.98;;
15764;SDS011;7983;50.744;7.086;2022-09-03T09:38:34;2.65;;;1.00;;
15764;SDS011;7983;50.744;7.086;2022-09-03T09:41:17;1.30;;;0.90;;
15764;SDS011;7983;50.744;7.086;2022-09-03T09:43:46;2.60;;;1.20;;
15764;SDS011;7983;50.744;7.086;2022-09-03T09:46:19;1.52;;;1.08;;
15764;SDS011;7983;50.744;7.086;2022-09-03T09:53:59;1.63;;;1.00;;
15764;SDS011;7983;50.744;7.086;2022-09-03T09:56:43;1.38;;;1.00;;
15764;SDS011;7983;50.744;7.086;2022-09-03T09:59:09;2.45;;;1.08;;
15764;SDS011;7983;50.744;7.086;2022-09-03T10:01:37;1.25;;;1.10;;
15764;SDS011;7983;50.744;7.086;2022-09-03T10:06:37;1.67;;;1.10;;
15764;SDS011;7983;50.744;7.086;2022-09-03T10:09:28;1.52;;;1.20;;
15764;SDS011;7983;50.744;7.086;2022-09-03T10:15:02;1.67;;;1.02;;
15764;SDS011;7983;50.744;7.086;2022-09-03T10:20:23;2.60;;;1.40;;
15764;SDS011;7983;50.744;7.086;2022-09-03T10:23:42;1.30;;;1.20;;
15764;SDS011;7983;50.744;7.086;2022-09-03T10:28:14;2.10;;;1.30;;
15764;SDS011;7983;50.744;7.086;2022-09-03T10:38:44;1.40;;;1.10;;
15764;SDS011;7983;50.744;7.086;2022-09-03T10:41:31;1.23;;;0.90;;
15764;SDS011;7983;50.744;7.086;2022-09-03T10:49:49;2.63;;;1.38;;
15764;SDS011;7983;50.744;7.086;2022-09-03T10:55:30;1.77;;;1.27;;
15764;SDS011;7983;50.744;7.086;2022-09-03T11:00:51;1.20;;;1.10;;
15764;SDS011;7983;50.744;7.086;2022-09-03T11:03:34;2.03;;;1.10;;
15764;SDS011;7983;50.744;7.086;2022-09-03T11:08:45;1.80;;;1.30;;
15764;SDS011;7983;50.744;7.086;2022-09-03T11:11:17;1.63;;;1.08;;
15764;SDS011;7983;50.744;7.086;2022-09-03T11:13:55;1.55;;;1.42;;
15764;SDS011;7983;50.744;7.086;2022-09-03T11:16:39;1.95;;;1.30;;
15764;SDS011;7983;50.744;7.086;2022-09-03T11:19:15;1.65;;;1.27;;
15764;SDS011;7983;50.744;7.086;2022-09-03T11:21:43;1.63;;;1.40;;
15764;SDS011;7983;50.744;7.086;2022-09-03T11:24:13;1.48;;;1.20;;
15764;SDS011;7983;50.744;7.086;2022-09-03T11:26:40;2.85;;;1.42;;
15764;SDS011;7983;50.744;7.086;2022-09-03T11:29:15;2.88;;;1.65;;
15764;SDS011;7983;50.744;7.086;2022-09-03T11:34:48;2.00;;;1.40;;
15764;SDS011;7983;50.744;7.086;2022-09-03T11:40:11;1.95;;;1.50;;
15764;SDS011;7983;50.744;7.086;2022-09-03T11:42:44;2.10;;;1.38;;
15764;SDS011;7983;50.744;7.086;2022-09-03T11:45:33;3.70;;;1.40;;
15764;SDS011;7983;50.744;7.086;2022-09-03T11:48:00;1.70;;;1.30;;
15764;SDS011;7983;50.744;7.086;2022-09-03T11:50:27;3.42;;;1.38;;
15764;SDS011;7983;50.744;7.086;2022-09-03T11:58:39;2.42;;;1.30;;
15764;SDS011;7983;50.744;7.086;2022-09-03T12:01:10;1.80;;;1.40;;
15764;SDS011;7983;50.744;7.086;2022-09-03T12:03:53;2.08;;;1.50;;
15764;SDS011;7983;50.744;7.086;2022-09-03T12:19:57;2.10;;;1.58;;
15764;SDS011;7983;50.744;7.086;2022-09-03T12:22:24;2.20;;;1.60;;
15764;SDS011;7983;50.744;7.086;2022-09-03T12:24:52;1.60;;;1.13;;
15764;SDS011;7983;50.744;7.086;2022-09-03T12:29:56;1.80;;;1.50;;
15764;SDS011;7983;50.744;7.086;2022-09-03T12:32:25;1.92;;;1.50;;
15764;SDS011;7983;50.744;7.086;2022-09-03T12:35:11;2.97;;;1.60;;
15764;SDS011;7983;50.744;7.086;2022-09-03T12:37:39;1.30;;;1.20;;
15764;SDS011;7983;50.744;7.086;2022-09-03T12:40:15;1.83;;;1.52;;
15764;SDS011;7983;50.744;7.086;2022-09-03T12:42:46;1.90;;;1.40;;
15764;SDS011;7983;50.744;7.086;2022-09-03T12:45:17;2.00;;;1.50;;
15764;SDS011;7983;50.744;7.086;2022-09-03T12:47:52;3.22;;;1.40;;
15764;SDS011;7983;50.744;7.086;2022-09-03T12:50:19;1.50;;;1.30;;
15764;SDS011;7983;50.744;7.086;2022-09-03T12:52:54;1.60;;;1.48;;
15764;SDS011;7983;50.744;7.086;2022-09-03T12:55:34;1.73;;;1.50;;
15764;SDS011;7983;50.744;7.086;2022-09-03T13:03:44;1.60;;;1.30;;
15764;SDS011;7983;50.744;7.086;2022-09-03T13:06:22;1.67;;;1.40;;
15764;SDS011;7983;50.744;7.086;2022-09-03T13:08:56;1.73;;;1.50;;
15764;SDS011;7983;50.744;7.086;2022-09-03T13:11:25;1.27;;;1.17;;
15764;SDS011;7983;50.744;7.086;2022-09-03T13:14:04;2.17;;;1.30;;
15764;SDS011;7983;50.744;7.086;2022-09-03T13:19:18;1.40;;;1.30;;
15764;SDS011;7983;50.744;7.086;2022-09-03T13:27:58;1.35;;;1.20;;
15764;SDS011;7983;50.744;7.086;2022-09-03T13:33:21;1.48;;;1.35;;
15764;SDS011;7983;50.744;7.086;2022-09-03T13:43:42;1.92;;;1.48;;
15764;SDS011;7983;50.744;7.086;2022-09-03T13:46:19;3.30;;;1.38;;
15764;SDS011;7983;50.744;7.086;2022-09-03T13:48:56;1.63;;;1.33;;
15764;SDS011;7983;50.744;7.086;2022-09-03T13:51:52;2.05;;;1.70;;
15764;SDS011;7983;50.744;7.086;2022-09-03T13:54:30;2.28;;;1.48;;
15764;SDS011;7983;50.744;7.086;2022-09-03T14:00:08;1.58;;;1.17;;
15764;SDS011;7983;50.744;7.086;2022-09-03T14:13:16;1.10;;;1.00;;
15764;SDS011;7983;50.744;7.086;2022-09-03T14:21:08;2.70;;;1.35;;
15764;SDS011;7983;50.744;7.086;2022-09-03T14:26:31;1.30;;;1.10;;
15764;SDS011;7983;50.744;7.086;2022-09-03T14:34:28;1.55;;;1.17;;
15764;SDS011;7983;50.744;7.086;2022-09-03T14:45:59;1.40;;;1.10;;
15764;SDS011;7983;50.744;7.086;2022-09-03T14:52:11;1.20;;;1.10;;
15764;SDS011;7983;50.744;7.086;2022-09-03T15:00:21;1.50;;;1.20;;
15764;SDS011;7983;50.744;7.086;2022-09-03T15:27:55;1.92;;;1.73;;
15764;SDS011;7983;50.744;7.086;2022-09-03T15:30:50;1.90;;;1.50;;
15764;SDS011;7983;50.744;7.086;2022-09-03T15:33:41;1.50;;;1.40;;
15764;SDS011;7983;50.744;7.086;2022-09-03T15:36:21;1.38;;;1.10;;
15764;SDS011;7983;50.744;7.086;2022-09-03T15:38:54;1.40;;;1.30;;
15764;SDS011;7983;50.744;7.086;2022-09-03T15:41:49;1.40;;;1.30;;
15764;SDS011;7983;50.744;7.086;2022-09-03T15:44:26;2.30;;;1.92;;
15764;SDS011;7983;50.744;7.086;2022-09-03T15:46:59;2.65;;;2.10;;
15764;SDS011;7983;50.744;7.086;2022-09-03T15:57:45;1.73;;;1.30;;
15764;SDS011;7983;50.744;7.086;2022-09-03T16:14:40;1.20;;;0.88;;
15764;SDS011;7983;50.744;7.086;2022-09-03T16:20:18;2.35;;;1.27;;
15764;SDS011;7983;50.744;7.086;2022-09-03T16:22:55;2.00;;;1.30;;
15764;SDS011;7983;50.744;7.086;2022-09-03T16:26:07;1.40;;;1.05;;
15764;SDS011;7983;50.744;7.086;2022-09-03T16:28:51;1.10;;;1.00;;
15764;SDS011;7983;50.744;7.086;2022-09-03T16:39:57;1.33;;;1.10;;
15764;SDS011;7983;50.744;7.086;2022-09-03T16:42:44;1.20;;;1.05;;
15764;SDS011;7983;50.744;7.086;2022-09-03T16:53:58;2.08;;;1.40;;
15764;SDS011;7983;50.744;7.086;2022-09-03T16:59:39;2.92;;;1.60;;
15764;SDS011;7983;50.744;7.086;2022-09-03T17:14:23;1.92;;;1.20;;
15764;SDS011;7983;50.744;7.086;2022-09-03T17:17:10;1.60;;;1.02;;
15764;SDS011;7983;50.744;7.086;2022-09-03T17:33:27;9.38;;;7.13;;
15764;SDS011;7983;50.744;7.086;2022-09-03T17:36:22;4.78;;;3.42;;
15764;SDS011;7983;50.744;7.086;2022-09-03T17:41:51;3.05;;;1.80;;
15764;SDS011;7983;50.744;7.086;2022-09-03T17:44:35;2.55;;;1.48;;
15764;SDS011;7983;50.744;7.086;2022-09-03T17:50:24;1.70;;;1.48;;
15764;SDS011;7983;50.744;7.086;2022-09-03T17:56:01;1.60;;;1.42;;
15764;SDS011;7983;50.744;7.086;2022-09-03T17:58:43;2.22;;;1.52;;
15764;SDS011;7983;50.744;7.086;2022-09-03T18:01:25;1.80;;;1.60;;
15764;SDS011;7983;50.744;7.086;2022-09-03T18:04:00;1.73;;;1.52;;
15764;SDS011;7983;50.744;7.086;2022-09-03T18:09:48;2.80;;;1.80;;
15764;SDS011;7983;50.744;7.086;2022-09-03T18:12:33;1.98;;;1.70;;
15764;SDS011;7983;50.744;7.086;2022-09-03T18:17:37;2.28;;;1.52;;
15764;SDS011;7983;50.744;7.086;2022-09-03T18:20:13;1.90;;;1.60;;
15764;SDS011;7983;50.744;7.086;2022-09-03T18:23:02;1.80;;;1.50;;
15764;SDS011;7983;50.744;7.086;2022-09-03T18:26:12;1.88;;;1.40;;
15764;SDS011;7983;50.744;7.086;2022-09-03T18:29:19;1.67;;;1.58;;
15764;SDS011;7983;50.744;7.086;2022-09-03T18:32:11;2.45;;;1.48;;
15764;SDS011;7983;50.744;7.086;2022-09-03T18:34:55;1.70;;;1.50;;
15764;SDS011;7983;50.744;7.086;2022-09-03T18:37:39;1.77;;;1.38;;
15764;SDS011;7983;50.744;7.086;2022-09-03T18:40:35;2.08;;;1.60;;
15764;SDS011;7983;50.744;7.086;2022-09-03T18:46:43;2.10;;;1.63;;
15764;SDS011;7983;50.744;7.086;2022-09-03T18:53:27;2.72;;;2.40;;
15764;SDS011;7983;50.744;7.086;2022-09-03T18:56:52;2.72;;;2.30;;
15764;SDS011;7983;50.744;7.086;2022-09-03T19:12:20;2.80;;;2.13;;
15764;SDS011;7983;50.744;7.086;2022-09-03T19:15:21;2.05;;;1.58;;
15764;SDS011;7983;50.744;7.086;2022-09-03T19:23:59;2.90;;;1.58;;
15764;SDS011;7983;50.744;7.086;2022-09-03T19:26:56;2.42;;;1.50;;
15764;SDS011;7983;50.744;7.086;2022-09-03T19:55:19;5.75;;;4.32;;
15764;SDS011;7983;50.744;7.086;2022-09-03T19:58:10;5.28;;;3.20;;
15764;SDS011;7983;50.744;7.086;2022-09-03T20:00:59;3.22;;;2.72;;
15764;SDS011;7983;50.744;7.086;2022-09-03T20:03:44;3.10;;;2.28;;
15764;SDS011;7983;50.744;7.086;2022-09-03T20:06:28;3.25;;;2.10;;
15764;SDS011;7983;50.744;7.086;2022-09-03T20:09:16;2.78;;;1.90;;
15764;SDS011;7983;50.744;7.086;2022-09-03T20:12:06;2.13;;;1.83;;
15764;SDS011;7983;50.744;7.086;2022-09-03T20:14:35;2.40;;;1.92;;
15764;SDS011;7983;50.744;7.086;2022-09-03T20:30:49;2.33;;;1.80;;
15764;SDS011;7983;50.744;7.086;2022-09-03T20:39:21;2.78;;;2.28;;
15764;SDS011;7983;50.744;7.086;2022-09-03T20:50:13;2.72;;;2.40;;
15764;SDS011;7983;50.744;7.086;2022-09-03T20:53:18;3.63;;;2.80;;
15764;SDS011;7983;50.744;7.086;2022-09-03T20:56:32;2.90;;;2.50;;
15764;SDS011;7983;50.744;7.086;2022-09-03T21:11:14;3.10;;;2.35;;
15764;SDS011;7983;50.744;7.086;2022-09-03T21:28:12;3.90;;;1.98;;
15764;SDS011;7983;50.744;7.086;2022-09-03T21:30:46;2.40;;;2.10;;
15764;SDS011;7983;50.744;7.086;2022-09-03T21:33:51;2.22;;;2.03;;
15764;SDS011;7983;50.744;7.086;2022-09-03T21:38:45;2.38;;;2.17;;
15764;SDS011;7983;50.744;7.086;2022-09-03T21:41:21;3.25;;;2.50;;
15764;SDS011;7983;50.744;7.086;2022-09-03T21:43:57;2.80;;;2.50;;
15764;SDS011;7983;50.744;7.086;2022-09-03T21:46:55;3.30;;;2.78;;
15764;SDS011;7983;50.744;7.086;2022-09-03T21:49:50;3.38;;;2.47;;
15764;SDS011;7983;50.744;7.086;2022-09-03T21:52:46;3.83;;;2.70;;
15764;SDS011;7983;50.744;7.086;2022-09-03T21:57:48;2.53;;;2.15;;
15764;SDS011;7983;50.744;7.086;2022-09-03T22:00:28;2.78;;;2.13;;
15764;SDS011;7983;50.744;7.086;2022-09-03T22:02:57;3.30;;;2.53;;
15764;SDS011;7983;50.744;7.086;2022-09-03T22:05:24;3.72;;;2.70;;
15764;SDS011;7983;50.744;7.086;2022-09-03T22:08:13;3.30;;;2.72;;
15764;SDS011;7983;50.744;7.086;2022-09-03T22:10:54;2.58;;;2.30;;
15764;SDS011;7983;50.744;7.086;2022-09-03T22:16:11;3.22;;;2.60;;
15764;SDS011;7983;50.744;7.086;2022-09-03T22:18:42;2.88;;;2.35;;
15764;SDS011;7983;50.744;7.086;2022-09-03T22:21:28;3.15;;;2.50;;
15764;SDS011;7983;50.744;7.086;2022-09-03T22:27:11;2.97;;;2.67;;
15764;SDS011;7983;50.744;7.086;2022-09-03T22:44:09;3.47;;;2.50;;
15764;SDS011;7983;50.744;7.086;2022-09-03T22:49:24;3.55;;;2.47;;
15764;SDS011;7983;50.744;7.086;2022-09-03T22:52:16;3.03;;;2.30;;
15764;SDS011;7983;50.744;7.086;2022-09-03T22:57:34;3.53;;;2.40;;
15764;SDS011;7983;50.744;7.086;2022-09-03T23:00:06;2.90;;;2.30;;
15764;SDS011;7983;50.744;7.086;2022-09-03T23:02:34;2.20;;;2.00;;
15764;SDS011;7983;50.744;7.086;2022-09-03T23:05:04;2.55;;;2.35;;
15764;SDS011;7983;50.744;7.086;2022-09-03T23:10:57;2.58;;;2.10;;
15764;SDS011;7983;50.744;7.086;2022-09-03T23:13:47;2.03;;;1.90;;
15764;SDS011;7983;50.744;7.086;2022-09-03T23:16:26;2.25;;;2.05;;
15764;SDS011;7983;50.744;7.086;2022-09-03T23:19:00;2.65;;;1.88;;
15764;SDS011;7983;50.744;7.086;2022-09-03T23:21:40;2.47;;;2.28;;
15764;SDS011;7983;50.744;7.086;2022-09-03T23:24:15;2.78;;;2.10;;
15764;SDS011;7983;50.744;7.086;2022-09-03T23:26:50;2.55;;;2.17;;
15764;SDS011;7983;50.744;7.086;2022-09-03T23:31:50;3.67;;;2.20;;
15764;SDS011;7983;50.744;7.086;2022-09-03T23:34:21;3.05;;;2.72;;
15764;SDS011;7983;50.744;7.086;2022-09-03T23:56:14;3.03;;;2.33;;
15764;SDS011;7983;50.744;7.086;2022-09-03T23:59:10;2.80;;;2.42;;
